Terminal Aerodrome Forecast
Issued by NWS Quad Cities IA IL

Home | Current Version | Previous Version | Text Only | Print | Product List | Glossary On
Versions: 1 2 3 4 5 6 7 8 9 10 11 12 13 14 15 16 17 18 19 20 21 22 23 24 25 26 27 28 29 30 31
988
FTUS43 KDVN 232124 AAA
TAFDBQ
TAF AMD
KDBQ 232124Z 2321/2418 30020G25KT P6SM SCT050
     FM240000 30012KT P6SM BKN080
     FM240200 31006KT P6SM SKC
     FM241500 30014G20KT P6SM FEW100=

USA.gov is the U.S. government's official web portal to all federal, state and local government web resources and services.